createdAt,value
2017-11-27T00:01:54.137Z,79.64
2017-11-27T00:04:20.600Z,79.22
2017-11-27T00:06:46.981Z,79.48
2017-11-27T00:09:13.343Z,79.53
2017-11-27T00:11:39.716Z,79.56
2017-11-27T00:14:06.165Z,79.58
2017-11-27T00:16:32.572Z,79.34
2017-11-27T00:18:58.941Z,79.64
2017-11-27T00:21:25.402Z,79.96
2017-11-27T00:23:51.778Z,79.83
2017-11-27T00:26:18.209Z,79.96
2017-11-27T00:28:44.635Z,79.79
2017-11-27T00:31:11.011Z,79.65
2017-11-27T00:33:37.394Z,79.65
2017-11-27T00:36:03.782Z,79.48
2017-11-27T00:38:30.134Z,79.46
2017-11-27T00:40:56.484Z,79.54
2017-11-27T00:43:22.866Z,79.43
2017-11-27T00:45:49.249Z,79.12
2017-11-27T00:48:15.694Z,79.32
2017-11-27T00:50:42.126Z,79.39
2017-11-27T00:53:08.477Z,79.52
2017-11-27T00:55:34.886Z,79.76
2017-11-27T00:58:01.368Z,79.76
2017-11-27T01:00:27.782Z,79.60
2017-11-27T01:02:54.213Z,79.66
2017-11-27T01:05:20.715Z,79.26
2017-11-27T01:07:47.091Z,78.49
2017-11-27T01:10:13.466Z,79.00
2017-11-27T01:12:39.910Z,79.35
2017-11-27T01:15:06.278Z,79.41
2017-11-27T01:17:32.650Z,79.38
2017-11-27T01:19:59.077Z,79.12
2017-11-27T01:22:25.427Z,78.88
2017-11-27T01:24:51.772Z,79.07
2017-11-27T01:27:18.178Z,79.02
2017-11-27T01:29:44.522Z,79.23
2017-11-27T01:32:10.953Z,79.46
2017-11-27T01:34:37.365Z,79.46
2017-11-27T01:37:03.774Z,79.17
2017-11-27T01:39:30.190Z,79.37
2017-11-27T01:41:56.617Z,78.76
2017-11-27T01:44:22.981Z,78.99
2017-11-27T01:46:49.397Z,79.16
2017-11-27T01:49:15.961Z,79.17
2017-11-27T01:51:42.355Z,79.50
2017-11-27T01:54:08.785Z,79.76
2017-11-27T01:56:35.304Z,79.84
2017-11-27T01:59:01.686Z,80.50
2017-11-27T02:01:28.062Z,80.57
2017-11-27T02:03:54.529Z,80.40
2017-11-27T02:06:20.933Z,80.34
2017-11-27T02:08:47.297Z,80.21
2017-11-27T02:11:13.730Z,80.56
2017-11-27T02:13:40.070Z,80.73
2017-11-27T02:16:06.486Z,80.21
2017-11-27T02:18:32.901Z,79.77
2017-11-27T02:20:59.432Z,79.66
2017-11-27T02:23:25.881Z,79.10
2017-11-27T02:25:52.298Z,79.14
2017-11-27T02:28:18.645Z,78.79
2017-11-27T02:30:44.999Z,79.09
2017-11-27T02:33:11.474Z,79.22
2017-11-27T02:35:37.826Z,79.35
2017-11-27T02:38:04.181Z,80.04
2017-11-27T02:40:30.798Z,80.09
2017-11-27T02:42:57.230Z,79.81
2017-11-27T02:45:23.693Z,79.02
2017-11-27T02:47:50.973Z,77.83
2017-11-27T02:50:17.335Z,78.62
2017-11-27T02:52:43.755Z,78.73
2017-11-27T02:55:10.202Z,77.55
2017-11-27T02:57:36.577Z,78.30
2017-11-27T03:00:03.082Z,78.55
2017-11-27T03:02:29.509Z,78.12
2017-11-27T03:04:55.926Z,78.38
2017-11-27T03:07:22.433Z,78.68
2017-11-27T03:09:48.835Z,78.75
2017-11-27T03:12:15.218Z,79.04
2017-11-27T03:14:41.613Z,79.50
2017-11-27T03:17:08.115Z,79.42
2017-11-27T03:19:34.460Z,79.70
2017-11-27T03:22:00.845Z,79.85
2017-11-27T03:24:27.239Z,79.83
2017-11-27T03:26:53.624Z,79.77
2017-11-27T03:29:20.034Z,79.89
2017-11-27T03:31:46.613Z,79.44
2017-11-27T03:34:13.045Z,78.40
2017-11-27T03:36:39.446Z,78.82
2017-11-27T03:39:05.835Z,78.99
2017-11-27T03:41:32.189Z,79.18
2017-11-27T03:43:58.542Z,79.57
2017-11-27T03:46:25.010Z,79.42
2017-11-27T03:48:51.366Z,79.18
2017-11-27T03:51:17.746Z,79.59
2017-11-27T03:53:44.129Z,78.66
2017-11-27T03:56:10.546Z,78.70
2017-11-27T03:58:36.920Z,79.00
2017-11-27T04:01:03.317Z,79.24
2017-11-27T04:03:29.660Z,79.46
2017-11-27T04:05:56.039Z,79.77
2017-11-27T04:08:22.551Z,79.81
2017-11-27T04:10:48.938Z,80.09
2017-11-27T04:13:15.353Z,80.10
2017-11-27T04:15:41.830Z,79.80
2017-11-27T04:18:08.225Z,79.52
2017-11-27T04:20:34.786Z,79.71
2017-11-27T04:23:01.217Z,79.27
2017-11-27T04:25:27.593Z,79.29
2017-11-27T04:27:53.997Z,79.83
2017-11-27T04:30:20.404Z,79.77
2017-11-27T04:32:46.832Z,79.57
2017-11-27T04:35:13.256Z,79.73
2017-11-27T04:37:39.715Z,79.55
2017-11-27T04:40:06.109Z,77.25
2017-11-27T04:42:32.540Z,77.99
2017-11-27T04:44:59.027Z,78.83
2017-11-27T04:47:25.397Z,79.13
2017-11-27T04:49:51.792Z,79.45
2017-11-27T04:52:18.194Z,79.62
2017-11-27T04:54:44.630Z,79.85
2017-11-27T04:57:11.045Z,78.76
2017-11-27T04:59:37.474Z,79.43
2017-11-27T05:02:03.888Z,79.63
2017-11-27T05:04:30.259Z,79.69
2017-11-27T05:06:56.693Z,79.63
2017-11-27T05:09:23.122Z,79.62
2017-11-27T05:11:49.502Z,79.53
2017-11-27T05:14:15.909Z,79.61
2017-11-27T05:16:42.325Z,79.77
2017-11-27T05:19:08.757Z,80.10
2017-11-27T05:21:35.306Z,78.37
2017-11-27T05:24:01.674Z,79.49
2017-11-27T05:26:28.046Z,79.65
2017-11-27T05:28:54.474Z,79.92
2017-11-27T05:31:20.829Z,79.78
2017-11-27T05:33:47.182Z,80.01
2017-11-27T05:36:13.792Z,80.06
2017-11-27T05:38:40.146Z,80.24
2017-11-27T05:41:06.534Z,80.53
2017-11-27T05:43:33.000Z,80.40
2017-11-27T05:45:59.394Z,80.59
2017-11-27T05:48:25.775Z,80.42
2017-11-27T05:50:52.190Z,80.60
2017-11-27T05:53:18.773Z,80.69
2017-11-27T05:55:45.133Z,79.39
2017-11-27T05:58:11.566Z,80.21
2017-11-27T06:00:37.953Z,79.89
2017-11-27T06:03:04.323Z,79.48
2017-11-27T06:05:30.726Z,79.24
2017-11-27T06:07:57.220Z,79.53
2017-11-27T06:10:23.762Z,79.29
2017-11-27T06:12:50.233Z,80.00
2017-11-27T06:15:16.610Z,79.99
2017-11-27T06:17:43.327Z,80.98
2017-11-27T06:20:09.733Z,80.75
2017-11-27T06:22:36.091Z,80.91
2017-11-27T06:25:02.493Z,81.18
2017-11-27T06:27:28.994Z,80.12
2017-11-27T06:29:55.558Z,80.01
2017-11-27T06:32:22.002Z,78.88
2017-11-27T06:34:48.433Z,79.34
2017-11-27T06:37:14.818Z,79.95
2017-11-27T06:39:41.160Z,80.24
2017-11-27T06:42:07.556Z,79.20
2017-11-27T06:44:33.902Z,79.61
2017-11-27T06:47:00.248Z,79.89
2017-11-27T06:49:26.662Z,80.49
2017-11-27T06:51:53.166Z,80.70
2017-11-27T06:54:19.538Z,79.80
2017-11-27T06:56:46.041Z,79.85
2017-11-27T06:59:12.405Z,79.77
2017-11-27T07:01:38.857Z,79.89
2017-11-27T07:04:05.644Z,80.11
2017-11-27T07:06:32.442Z,79.31
2017-11-27T07:08:58.872Z,79.32
2017-11-27T07:11:25.266Z,78.68
2017-11-27T07:13:51.610Z,78.60
2017-11-27T07:16:18.000Z,78.68
2017-11-27T07:18:44.503Z,78.62
2017-11-27T07:21:10.874Z,78.92
2017-11-27T07:23:37.241Z,79.00
2017-11-27T07:26:03.803Z,79.42
2017-11-27T07:28:30.165Z,79.19
2017-11-27T07:30:56.514Z,79.63
2017-11-27T07:33:23.191Z,79.74
2017-11-27T07:35:49.560Z,79.45
2017-11-27T07:38:21.783Z,79.20
2017-11-27T07:40:51.009Z,78.94
2017-11-27T07:43:18.373Z,78.87
2017-11-27T07:45:44.753Z,79.42
2017-11-27T07:48:11.226Z,79.59
2017-11-27T07:50:37.665Z,80.17
2017-11-27T07:53:04.013Z,80.22
2017-11-27T07:55:30.382Z,79.92
2017-11-27T07:57:56.935Z,79.77
2017-11-27T08:00:23.318Z,79.99
2017-11-27T08:02:49.757Z,80.18
2017-11-27T08:05:16.141Z,80.62
2017-11-27T08:07:42.900Z,80.16
2017-11-27T08:10:09.305Z,79.52
2017-11-27T08:12:35.651Z,79.26
2017-11-27T08:15:02.111Z,79.52
2017-11-27T08:17:28.554Z,79.93
2017-11-27T08:19:54.910Z,80.19
2017-11-27T08:22:21.261Z,80.23
2017-11-27T08:24:47.780Z,79.84
2017-11-27T08:27:14.132Z,79.84
2017-11-27T08:29:40.662Z,79.93
2017-11-27T08:32:07.102Z,80.02
2017-11-27T08:34:33.462Z,80.15
2017-11-27T08:36:59.826Z,80.29
2017-11-27T08:39:26.336Z,80.23
2017-11-27T08:41:52.733Z,79.99
2017-11-27T08:44:19.126Z,80.30
2017-11-27T08:46:45.567Z,80.46
2017-11-27T08:49:11.988Z,80.53
2017-11-27T08:51:38.609Z,80.71
2017-11-27T08:54:05.237Z,80.63
2017-11-27T08:56:31.831Z,80.31
2017-11-27T08:58:58.362Z,80.69
2017-11-27T09:01:24.954Z,80.94
2017-11-27T09:03:51.479Z,80.79
2017-11-27T09:06:17.874Z,80.88
2017-11-27T09:08:44.299Z,80.27
2017-11-27T09:11:10.780Z,80.40
2017-11-27T09:13:37.190Z,80.52
2017-11-27T09:16:03.654Z,80.49
2017-11-27T09:18:30.026Z,80.70
2017-11-27T09:20:56.602Z,80.47
2017-11-27T09:23:23.160Z,79.80
2017-11-27T09:25:49.551Z,79.94
2017-11-27T09:28:16.195Z,80.01
2017-11-27T09:30:42.914Z,79.87
2017-11-27T09:33:09.369Z,79.53
2017-11-27T09:35:35.886Z,79.59
2017-11-27T09:38:02.342Z,79.54
2017-11-27T09:40:28.827Z,79.24
2017-11-27T09:42:55.451Z,79.25
2017-11-27T09:45:22.057Z,79.80
2017-11-27T09:47:48.724Z,79.99
2017-11-27T09:50:15.205Z,80.19
2017-11-27T09:52:41.658Z,80.20
2017-11-27T10:01:09.079Z,79.71
2017-11-27T10:03:35.642Z,79.90
2017-11-27T10:06:02.214Z,79.82
2017-11-27T10:08:28.645Z,79.78
2017-11-27T10:10:55.093Z,79.80
2017-11-27T10:13:21.635Z,79.51
2017-11-27T10:15:48.076Z,79.45
2017-11-27T10:18:14.757Z,80.33
2017-11-27T10:20:41.166Z,81.00
2017-11-27T10:23:07.593Z,80.74
2017-11-27T10:25:34.020Z,80.38
2017-11-27T10:28:00.614Z,79.61
2017-11-27T10:30:27.045Z,79.70
2017-11-27T10:32:53.461Z,79.12
2017-11-27T10:35:19.966Z,79.46
2017-11-27T10:37:46.469Z,80.10
2017-11-27T10:40:12.893Z,80.37
2017-11-27T10:42:39.287Z,80.39
2017-11-27T10:45:05.698Z,80.03
2017-11-27T10:47:32.171Z,80.03
2017-11-27T10:49:58.585Z,80.03
2017-11-27T10:52:25.009Z,80.33
2017-11-27T10:54:51.418Z,80.22
2017-11-27T10:57:17.798Z,80.88
2017-11-27T10:59:44.225Z,80.92
2017-11-27T11:02:10.640Z,81.33
2017-11-27T11:04:37.268Z,81.43
2017-11-27T11:07:04.231Z,81.24
2017-11-27T11:09:31.619Z,81.14
2017-11-27T11:11:59.198Z,80.97
2017-11-27T11:14:27.368Z,80.87
2017-11-27T11:16:54.574Z,81.08
2017-11-27T11:19:21.609Z,80.75
2017-11-27T11:21:48.463Z,80.69
2017-11-27T11:24:15.724Z,81.01
2017-11-27T11:26:42.266Z,81.39
2017-11-27T11:29:08.793Z,81.56
2017-11-27T11:31:35.186Z,81.28
2017-11-27T11:34:01.587Z,81.09
2017-11-27T11:36:28.418Z,81.49
2017-11-27T11:38:54.898Z,81.54
2017-11-27T11:41:21.276Z,82.06
2017-11-27T11:43:47.780Z,81.83
2017-11-27T11:46:14.190Z,81.51
2017-11-27T11:48:40.558Z,82.02
2017-11-27T11:51:06.990Z,82.68
2017-11-27T11:53:33.389Z,82.60
2017-11-27T11:55:59.826Z,82.21
2017-11-27T11:58:26.365Z,82.18
2017-11-27T12:00:52.783Z,82.55
2017-11-27T12:03:19.166Z,82.95
2017-11-27T12:05:45.687Z,83.09
2017-11-27T12:08:12.093Z,83.80
2017-11-27T12:10:38.486Z,84.00
2017-11-27T12:13:04.899Z,83.83
2017-11-27T12:15:31.310Z,84.01
2017-11-27T12:17:57.724Z,83.31
2017-11-27T12:20:24.176Z,82.61
2017-11-27T12:22:50.593Z,81.32
2017-11-27T12:25:17.007Z,81.11
2017-11-27T12:27:43.402Z,81.26
2017-11-27T12:30:09.912Z,81.23
2017-11-27T12:32:36.398Z,81.18
2017-11-27T12:35:02.816Z,81.32
2017-11-27T12:37:29.233Z,81.81
2017-11-27T12:39:55.714Z,81.59
2017-11-27T12:42:22.602Z,81.33
2017-11-27T12:44:49.898Z,82.21
2017-11-27T12:47:16.816Z,82.83
2017-11-27T12:49:43.811Z,82.75
2017-11-27T12:52:10.561Z,82.91
2017-11-27T12:54:38.144Z,82.86
2017-11-27T12:57:05.225Z,82.23
2017-11-27T12:59:32.199Z,82.01
2017-11-27T13:01:58.716Z,81.79
2017-11-27T13:04:25.189Z,81.08
2017-11-27T13:06:51.561Z,81.67
2017-11-27T13:09:17.949Z,82.28
2017-11-27T13:11:44.393Z,81.41
2017-11-27T13:14:10.832Z,81.88
2017-11-27T13:16:37.203Z,81.97
2017-11-27T13:19:03.655Z,81.97
2017-11-27T13:21:30.158Z,82.25
2017-11-27T13:23:56.543Z,80.99
2017-11-27T13:26:22.978Z,81.45
2017-11-27T13:28:49.360Z,81.26
2017-11-27T13:31:15.715Z,82.46
2017-11-27T13:33:42.115Z,82.32
2017-11-27T13:36:08.530Z,82.04
2017-11-27T13:38:35.095Z,82.50
2017-11-27T13:41:01.540Z,82.72
2017-11-27T13:43:28.007Z,82.34
2017-11-27T13:45:54.416Z,81.89
2017-11-27T13:48:20.874Z,82.66
2017-11-27T13:50:47.280Z,80.84
2017-11-27T13:53:13.687Z,80.88
2017-11-27T13:55:40.173Z,80.85
2017-11-27T13:58:06.606Z,81.79
2017-11-27T14:00:34.143Z,80.88
2017-11-27T14:03:00.626Z,80.87
2017-11-27T14:05:27.000Z,81.59
2017-11-27T14:07:53.371Z,82.08
2017-11-27T14:10:19.925Z,82.53
2017-11-27T14:12:46.273Z,82.22
2017-11-27T14:15:12.615Z,81.37
2017-11-27T14:17:39.059Z,82.51
2017-11-27T14:20:05.450Z,82.27
2017-11-27T14:22:32.099Z,82.74
2017-11-27T14:24:59.640Z,82.30
2017-11-27T14:27:26.494Z,82.05
2017-11-27T14:29:56.306Z,81.09
2017-11-27T14:32:25.155Z,81.43
2017-11-27T14:34:53.389Z,83.19
2017-11-27T14:37:20.110Z,82.69
2017-11-27T14:40:27.398Z,82.05
2017-11-27T14:42:53.898Z,80.91
2017-11-27T14:45:20.374Z,79.21
2017-11-27T14:47:47.181Z,81.71
2017-11-27T14:50:13.613Z,81.51
2017-11-27T14:52:40.115Z,81.05
2017-11-27T14:55:06.765Z,81.83
2017-11-27T14:57:33.351Z,82.62
2017-11-27T15:00:00.115Z,80.52
2017-11-27T15:02:26.666Z,81.12
2017-11-27T15:04:53.264Z,80.62
2017-11-27T15:07:19.954Z,80.45
2017-11-27T15:09:46.413Z,81.32
2017-11-27T15:12:13.233Z,82.37
2017-11-27T15:14:39.682Z,81.39
2017-11-27T15:17:06.166Z,82.20
2017-11-27T15:19:32.641Z,82.62
2017-11-27T15:21:59.096Z,82.61
2017-11-27T15:24:25.758Z,83.80
2017-11-27T15:26:52.222Z,82.08
2017-11-27T15:29:18.825Z,81.56
2017-11-27T15:31:45.324Z,80.79
2017-11-27T15:34:11.901Z,81.70
2017-11-27T15:36:39.318Z,82.36
2017-11-27T15:39:05.910Z,82.73
2017-11-27T15:41:32.478Z,81.29
2017-11-27T15:43:58.977Z,80.83
2017-11-27T15:46:25.465Z,82.38
2017-11-27T15:48:51.966Z,82.50
2017-11-27T15:51:18.775Z,81.63
2017-11-27T15:53:45.395Z,81.72
2017-11-27T15:56:11.947Z,82.06
2017-11-27T15:58:38.533Z,83.27
2017-11-27T16:01:05.494Z,81.91
2017-11-27T16:03:32.077Z,82.40
2017-11-27T16:05:58.555Z,82.21
2017-11-27T16:08:25.035Z,81.75
2017-11-27T16:10:51.502Z,81.79
2017-11-27T16:13:17.986Z,79.82
2017-11-27T16:15:44.490Z,81.12
2017-11-27T16:18:10.949Z,81.09
2017-11-27T16:20:37.430Z,81.86
2017-11-27T16:23:04.207Z,81.96
2017-11-27T16:25:30.729Z,81.08
2017-11-27T16:27:57.194Z,82.06
2017-11-27T16:30:23.688Z,81.61
2017-11-27T16:32:50.162Z,81.53
2017-11-27T16:35:16.724Z,81.89
2017-11-27T16:37:43.230Z,82.87
2017-11-27T16:40:09.669Z,83.07
2017-11-27T16:42:36.154Z,83.66
2017-11-27T16:45:02.640Z,83.25
2017-11-27T16:47:29.118Z,82.13
2017-11-27T16:49:55.810Z,82.86
2017-11-27T16:52:22.375Z,80.87
2017-11-27T16:54:49.073Z,80.65
2017-11-27T16:57:15.524Z,80.40
2017-11-27T16:59:42.906Z,81.12
2017-11-27T17:02:09.354Z,83.20
2017-11-27T17:04:35.847Z,82.48
2017-11-27T17:07:02.333Z,83.09
2017-11-27T17:09:29.221Z,81.68
2017-11-27T17:11:55.667Z,82.10
2017-11-27T17:14:22.167Z,80.93
2017-11-27T17:16:48.670Z,81.89
2017-11-27T17:19:17.999Z,81.57
2017-11-27T17:21:44.599Z,81.87
2017-11-27T17:24:11.090Z,81.63
2017-11-27T17:26:37.533Z,81.25
2017-11-27T17:29:04.028Z,81.72
2017-11-27T17:31:30.482Z,80.98
2017-11-27T17:33:56.934Z,82.10
2017-11-27T17:36:23.480Z,81.72
2017-11-27T17:38:50.032Z,81.15
2017-11-27T17:41:16.508Z,81.84
2017-11-27T17:43:43.015Z,81.48
2017-11-27T17:46:09.467Z,81.62
2017-11-27T17:48:35.903Z,81.44
2017-11-27T17:51:02.464Z,81.85
2017-11-27T17:53:28.969Z,82.48
2017-11-27T17:55:55.640Z,82.47
2017-11-27T17:58:22.644Z,81.45
2017-11-27T18:00:49.058Z,82.50
2017-11-27T18:03:15.552Z,82.58
2017-11-27T18:05:42.031Z,82.08
2017-11-27T18:08:09.261Z,82.27
2017-11-27T18:10:37.374Z,82.74
2017-11-27T18:13:03.908Z,81.83
2017-11-27T18:15:31.343Z,82.84
2017-11-27T18:18:00.800Z,81.58
2017-11-27T18:20:28.268Z,83.04
2017-11-27T18:22:55.127Z,82.37
2017-11-27T18:25:21.989Z,82.51
2017-11-27T18:27:48.505Z,82.56
2017-11-27T18:30:16.764Z,82.62
2017-11-27T18:32:43.274Z,82.89
2017-11-27T18:35:09.787Z,82.42
2017-11-27T18:37:36.515Z,82.24
2017-11-27T18:40:03.037Z,82.48
2017-11-27T18:42:29.689Z,82.69
2017-11-27T18:44:56.248Z,84.15
2017-11-27T18:47:22.888Z,82.22
2017-11-27T18:49:52.387Z,82.23
2017-11-27T18:52:23.870Z,82.58
2017-11-27T18:54:50.335Z,81.71
2017-11-27T18:57:16.847Z,81.25
2017-11-27T18:59:43.356Z,81.24
2017-11-27T19:02:10.635Z,81.45
2017-11-27T19:04:37.167Z,82.47
2017-11-27T19:07:03.623Z,82.92
2017-11-27T19:09:30.077Z,82.33
2017-11-27T19:11:58.683Z,82.42
2017-11-27T19:14:25.212Z,81.44
2017-11-27T19:16:52.495Z,82.93
2017-11-27T19:19:19.358Z,81.11
2017-11-27T19:21:45.914Z,82.94
2017-11-27T19:24:12.480Z,81.45
2017-11-27T19:26:39.839Z,80.50
2017-11-27T19:29:06.354Z,80.00
2017-11-27T19:31:33.611Z,79.65
2017-11-27T19:34:00.251Z,80.37
2017-11-27T19:36:26.764Z,80.96
2017-11-27T19:38:53.251Z,82.12
2017-11-27T19:41:19.787Z,81.30
2017-11-27T19:43:46.300Z,80.82
2017-11-27T19:46:14.567Z,82.52
2017-11-27T19:48:41.270Z,80.76
2017-11-27T19:51:07.789Z,81.50
2017-11-27T19:53:35.488Z,81.71
2017-11-27T19:56:02.348Z,81.13
2017-11-27T19:58:29.168Z,82.74
2017-11-27T20:00:56.427Z,80.84
2017-11-27T20:03:22.916Z,81.36
2017-11-27T20:05:49.398Z,81.21
2017-11-27T20:08:16.755Z,80.89
2017-11-27T20:10:43.273Z,81.56
2017-11-27T20:13:09.792Z,81.97
2017-11-27T20:15:36.321Z,81.55
2017-11-27T20:18:03.766Z,81.97
2017-11-27T20:20:30.242Z,81.71
2017-11-27T20:22:56.698Z,81.75
2017-11-27T20:25:23.210Z,81.01
2017-11-27T20:27:49.833Z,82.25
2017-11-27T20:30:16.295Z,82.14
2017-11-27T20:32:42.791Z,82.17
2017-11-27T20:35:09.274Z,81.37
2017-11-27T20:37:35.883Z,80.65
2017-11-27T20:40:02.553Z,82.09
2017-11-27T20:42:29.005Z,81.72
2017-11-27T20:44:55.490Z,82.43
2017-11-27T20:47:21.977Z,82.96
2017-11-27T20:49:48.440Z,81.36
2017-11-27T20:52:14.898Z,82.37
2017-11-27T20:54:41.514Z,81.77
2017-11-27T20:57:08.301Z,81.09
2017-11-27T20:59:34.841Z,81.91
2017-11-27T21:02:01.325Z,81.13
2017-11-27T21:04:27.738Z,81.16
2017-11-27T21:06:54.166Z,80.54
2017-11-27T21:09:20.626Z,80.59
2017-11-27T21:11:47.022Z,79.67
2017-11-27T21:14:13.544Z,81.24
2017-11-27T21:16:39.975Z,81.25
2017-11-27T21:19:06.447Z,79.87
2017-11-27T21:21:32.918Z,80.24
2017-11-27T21:23:59.382Z,81.51
2017-11-27T21:26:25.807Z,80.78
2017-11-27T21:28:52.236Z,79.86
2017-11-27T21:31:18.709Z,80.63
2017-11-27T21:33:45.134Z,79.40
2017-11-27T21:36:11.522Z,79.68
2017-11-27T21:38:37.975Z,78.36
2017-11-27T21:41:04.455Z,79.64
2017-11-27T21:43:30.863Z,79.29
2017-11-27T21:45:57.360Z,80.17
2017-11-27T21:48:23.788Z,80.67
2017-11-27T21:50:50.243Z,81.37
2017-11-27T21:53:16.717Z,80.54
2017-11-27T21:55:43.147Z,79.36
2017-11-27T21:58:09.582Z,79.60
2017-11-27T22:00:36.054Z,78.64
2017-11-27T22:03:02.437Z,78.87
2017-11-27T22:05:28.893Z,77.79
2017-11-27T22:07:55.483Z,77.53
2017-11-27T22:10:21.971Z,77.11
2017-11-27T22:12:48.456Z,77.20
2017-11-27T22:15:14.902Z,77.72
2017-11-27T22:17:41.341Z,78.61
2017-11-27T22:20:07.774Z,77.79
2017-11-27T22:22:34.245Z,76.95
2017-11-27T22:25:00.823Z,76.45
2017-11-27T22:27:27.255Z,78.75
2017-11-27T22:29:53.721Z,76.59
2017-11-27T22:32:20.247Z,76.01
2017-11-27T22:34:46.629Z,76.29
2017-11-27T22:37:13.118Z,76.90
2017-11-27T22:39:39.600Z,76.11
2017-11-27T22:42:06.163Z,75.42
2017-11-27T22:44:32.644Z,76.37
2017-11-27T22:46:59.074Z,77.52
2017-11-27T22:49:25.509Z,76.08
2017-11-27T22:51:52.022Z,74.94
2017-11-27T22:54:18.461Z,76.63
2017-11-27T22:56:44.963Z,77.08
2017-11-27T22:59:11.431Z,75.68
2017-11-27T23:01:37.833Z,74.15
2017-11-27T23:04:04.271Z,73.96
2017-11-27T23:06:30.705Z,74.08
2017-11-27T23:08:57.185Z,75.17
2017-11-27T23:11:23.590Z,75.34
2017-11-27T23:13:50.102Z,73.24
2017-11-27T23:16:16.842Z,72.64
2017-11-27T23:18:43.329Z,72.21
2017-11-27T23:21:09.869Z,73.79
2017-11-27T23:23:36.321Z,74.35
2017-11-27T23:26:02.741Z,73.01
2017-11-27T23:28:29.250Z,73.31
2017-11-27T23:30:55.687Z,75.18
2017-11-27T23:33:22.129Z,71.78
2017-11-27T23:35:48.593Z,71.97
2017-11-27T23:38:15.027Z,71.71
2017-11-27T23:40:41.434Z,70.16
2017-11-27T23:43:07.918Z,70.16
2017-11-27T23:45:34.350Z,70.33
2017-11-27T23:48:00.825Z,71.03
2017-11-27T23:50:27.307Z,71.02
2017-11-27T23:52:53.831Z,68.62
2017-11-27T23:55:20.317Z,68.74
2017-11-27T23:57:46.754Z,70.44
